P/v San Francisco — WDA3425 — position and weather

sailwx.info

Track history (hours):
 
Tides and Currents Weather Stations Pressure Air Temp Water Temp Dewpoint Dewpoint Depression Visibility Wind Speed Wind Dir Waves Ship Positions

P/v San Francisco

Owner: San Francisco Bar Pilots Benevolent and Protective, SAN FRANCISCO, CA. More information available from US FCC via Universal Licensing System and Coast Guard Vessel Documentation Center.

Last reported at 2018-Aug-19 21:53 UTC. Time now 2018-Aug-20 16:46 UTC.
Position N 37°48' W 122°24'.

Length 33 m.

Type: Pilot. MMSI: 366798310.

Date/timePositionNaut miles runAvg speedWind from/ knotsBaromVisibWave heightAir tempDewpointWater temp
2018-Aug-19 21:53N 37°48' W 122°24'0 0.0
2018-Aug-19 21:30N 37°48' W 122°24'0 0.0
2018-Aug-19 21:00N 37°48' W 122°24'0 0.0
2018-Aug-19 20:30N 37°48' W 122°24'0 0.0
2018-Aug-19 20:00N 37°48' W 122°24'0 0.0
2018-Aug-19 17:17N 37°48' W 122°24'0 0.0
2018-Aug-19 17:00N 37°48' W 122°24'0 0.0
2018-Aug-19 16:29N 37°48' W 122°24'0 0.0
2018-Aug-19 15:59N 37°48' W 122°24'0 0.0
2018-Aug-19 15:30N 37°48' W 122°24'0 0.0
2018-Aug-19 15:00N 37°48' W 122°24'0 0.0
2018-Aug-19 14:30N 37°48' W 122°24'1 1.5
2018-Aug-19 14:00N 37°49' W 122°24'713.6
2018-Aug-19 13:30N 37°48' W 122°32'611.9
2018-Aug-19 13:00N 37°46' W 122°40'1 1.3
2018-Aug-19 12:30N 37°46' W 122°40'1 1.9
2018-Aug-19 12:00N 37°46' W 122°41'1 1.3
2018-Aug-19 11:30N 37°46' W 122°40'1 2.5
2018-Aug-19 11:00N 37°45' W 122°41'1 1.4
2018-Aug-19 10:30N 37°45' W 122°42'1 2.3
2018-Aug-19 10:00N 37°45' W 122°41'0 0.6
2018-Aug-19 09:28N 37°45' W 122°40'1 2.1
2018-Aug-19 08:59N 37°44' W 122°42'2 3.3
2018-Aug-19 08:30N 37°44' W 122°44'2 3.6
2018-Aug-19 08:00N 37°45' W 122°42'1 1.3
2018-Aug-19 07:15N 37°46' W 122°41'1 3.5
2018-Aug-19 06:59N 37°45' W 122°40'1 1.7
2018-Aug-19 06:28N 37°46' W 122°41'1 2.6
2018-Aug-19 06:00N 37°46' W 122°39'2 4.1
2018-Aug-19 05:30N 37°46' W 122°37'1 2.0
2018-Aug-19 04:59N 37°46' W 122°38'2 4.6
2018-Aug-19 04:30N 37°45' W 122°40'0 0.5
2018-Aug-19 04:00N 37°45' W 122°40'2 3.0
2018-Aug-19 03:31N 37°46' W 122°41'1 2.7
2018-Aug-19 03:00N 37°46' W 122°42'1 2.2
2018-Aug-19 02:26N 37°46' W 122°41'1 1.3
2018-Aug-19 02:00N 37°46' W 122°40'2 3.2
2018-Aug-19 01:28N 37°46' W 122°42'1 0.9
2018-Aug-19 00:49N 37°46' W 122°41'1 2.4
2018-Aug-19 00:27N 37°46' W 122°41'1 2.4
2018-Aug-19 00:00N 37°45' W 122°39'1 1.6
2018-Aug-18 23:29N 37°45' W 122°41'1 3.1
2018-Aug-18 23:00N 37°45' W 122°42'2 2.1
2018-Aug-18 22:17N 37°45' W 122°40'1 2.3
2018-Aug-18 22:00N 37°44' W 122°41'2 5.0
2018-Aug-18 21:30N 37°47' W 122°40'1 1.2
2018-Aug-18 21:00N 37°46' W 122°40'1 1.5
2018-Aug-18 20:30N 37°47' W 122°41'1 2.4
2018-Aug-18 20:00N 37°46' W 122°40'1 2.8
2018-Aug-18 19:28N 37°45' W 122°41'0 0.8
2018-Aug-18 19:00N 37°45' W 122°41'1 2.6
2018-Aug-18 18:29N 37°46' W 122°40'0 0.7
2018-Aug-18 17:58N 37°46' W 122°41'1 2.9
2018-Aug-18 17:30N 37°46' W 122°39'2 3.1
2018-Aug-18 17:01N 37°46' W 122°37'713.1
2018-Aug-18 16:30N 37°49' W 122°29'5 9.2
2018-Aug-18 16:00N 37°48' W 122°24'0 0.0
2018-Aug-18 15:30N 37°48' W 122°24'0 0.0
2018-Aug-18 15:00N 37°48' W 122°24'0 0.0
2018-Aug-18 14:30N 37°48' W 122°24'0 0.0
2018-Aug-18 14:00N 37°48' W 122°24'0 0.0
2018-Aug-18 12:22N 37°48' W 122°24'1 3.2
2018-Aug-18 12:00N 37°49' W 122°25'714.1
2018-Aug-18 11:30N 37°47' W 122°33'712.1
2018-Aug-18 10:58N 37°45' W 122°41'1 1.8
2018-Aug-18 10:28N 37°46' W 122°41'1 1.8
2018-Aug-18 10:00N 37°46' W 122°40'1 2.2
2018-Aug-18 09:30N 37°47' W 122°41'1 1.7
2018-Aug-18 09:00N 37°46' W 122°40'1 1.5
2018-Aug-18 08:30N 37°46' W 122°41'1 2.0
2018-Aug-18 08:00N 37°46' W 122°43'1 2.2
2018-Aug-18 07:26N 37°45' W 122°41'1 2.4
2018-Aug-18 07:00N 37°45' W 122°40'1 1.8
2018-Aug-18 06:29N 37°45' W 122°39'1 2.7
2018-Aug-18 06:00N 37°44' W 122°41'0 0.5
2018-Aug-18 05:27N 37°44' W 122°41'1 2.0
2018-Aug-18 05:00N 37°45' W 122°40'1 1.2
2018-Aug-18 04:30N 37°45' W 122°40'1 1.9
2018-Aug-18 03:59N 37°45' W 122°40'1 2.8
2018-Aug-18 03:30N 37°47' W 122°40'1 1.9
2018-Aug-18 03:00N 37°47' W 122°39'1 1.6
2018-Aug-18 02:30N 37°47' W 122°38'1 2.7
2018-Aug-18 01:59N 37°46' W 122°40'1 1.6
2018-Aug-18 01:30N 37°46' W 122°40'1 1.7
2018-Aug-18 01:00N 37°45' W 122°41'2 3.6
2018-Aug-18 00:30N 37°44' W 122°41'2 4.0
2018-Aug-18 00:00N 37°46' W 122°40'1 2.4
2018-Aug-17 23:29N 37°47' W 122°40'2 3.1
2018-Aug-17 22:59N 37°46' W 122°38'2 3.8
2018-Aug-17 22:28N 37°45' W 122°40'1 1.4
2018-Aug-17 22:00N 37°46' W 122°40'1 2.5
2018-Aug-17 21:30N 37°46' W 122°38'1 2.5
2018-Aug-17 21:00N 37°47' W 122°37'0 0.4
2018-Aug-17 20:27N 37°47' W 122°38'2 2.7
2018-Aug-17 19:52N 37°46' W 122°39'1 1.7
2018-Aug-17 19:30N 37°46' W 122°39'1 1.6
2018-Aug-17 19:00N 37°45' W 122°40'1 1.6
2018-Aug-17 18:30N 37°45' W 122°41'1 2.4
2018-Aug-17 17:59N 37°46' W 122°41'1 1.6
2018-Aug-17 17:30N 37°46' W 122°40'4 8.2
2018-Aug-17 17:00N 37°47' W 122°35'714.2
2018-Aug-17 16:30N 37°49' W 122°26'2 4.5
2018-Aug-17 16:00N 37°48' W 122°24'0 0.7
2018-Aug-17 15:30N 37°48' W 122°24'510.8
2018-Aug-17 15:01N 37°48' W 122°31'6 6.2
2018-Aug-17 14:01N 37°47' W 122°38'2 4.3
2018-Aug-17 13:30N 37°47' W 122°41'1 1.8
2018-Aug-17 13:00N 37°47' W 122°40'1 2.3
2018-Aug-17 12:30N 37°46' W 122°39'1 2.1
2018-Aug-17 12:00N 37°46' W 122°38'510.7
2018-Aug-17 11:30N 37°48' W 122°32'4 8.1
2018-Aug-17 11:00N 37°49' W 122°27'5 9.2
2018-Aug-17 10:30N 37°48' W 122°32'4 8.0
2018-Aug-17 10:00N 37°46' W 122°37'4 7.5
2018-Aug-17 09:30N 37°44' W 122°41'1 2.8
2018-Aug-17 09:00N 37°46' W 122°41'1 1.0
2018-Aug-17 08:30N 37°46' W 122°41'2 3.4
2018-Aug-17 08:00N 37°46' W 122°43'1 1.2
2018-Aug-17 07:30N 37°46' W 122°43'1 2.3
2018-Aug-17 07:00N 37°45' W 122°42'1 2.3
2018-Aug-17 06:29N 37°44' W 122°42'1 2.1
2018-Aug-17 06:00N 37°45' W 122°42'1 2.1
2018-Aug-17 05:30N 37°46' W 122°42'2 3.2
2018-Aug-17 05:00N 37°44' W 122°40'1 1.0
2018-Aug-17 04:30N 37°44' W 122°41'1 2.3
2018-Aug-17 04:00N 37°45' W 122°40'1 1.8
2018-Aug-17 03:27N 37°46' W 122°39'1 1.9
2018-Aug-17 02:58N 37°46' W 122°40'0 0.8
2018-Aug-17 02:30N 37°46' W 122°40'1 1.8
2018-Aug-17 02:00N 37°45' W 122°39'1 2.0
2018-Aug-17 01:30N 37°46' W 122°39'1 1.9
2018-Aug-17 00:59N 37°46' W 122°38'2 4.4
2018-Aug-17 00:29N 37°46' W 122°40'0 1.0
2018-Aug-17 00:00N 37°46' W 122°40'1 1.3
2018-Aug-16 23:30N 37°47' W 122°39'1 1.5
2018-Aug-16 23:00N 37°46' W 122°40'0 0.5
2018-Aug-16 22:30N 37°46' W 122°40'1 2.1
2018-Aug-16 22:00N 37°46' W 122°39'1 1.6
2018-Aug-16 21:28N 37°46' W 122°38'1 2.2
2018-Aug-16 20:59N 37°47' W 122°39'0 0.7
2018-Aug-16 20:30N 37°47' W 122°39'1 1.8
2018-Aug-16 20:00N 37°46' W 122°39'0 0.7
2018-Aug-16 19:30N 37°46' W 122°39'1 2.5
2018-Aug-16 19:00N 37°46' W 122°37'3 6.0
2018-Aug-16 18:30N 37°47' W 122°34'1 2.8
2018-Aug-16 18:00N 37°48' W 122°32'611.7
2018-Aug-16 17:30N 37°46' W 122°39'1 1.7
2018-Aug-16 17:00N 37°47' W 122°40'1 2.1
2018-Aug-16 16:30N 37°46' W 122°39'1 1.7
2018-Aug-16 16:00N 37°46' W 122°39'0 0.8
2018-Aug-16 15:30N 37°47' W 122°39'1 1.0
2018-Aug-16 15:00N 37°46' W 122°39'1 1.4
2018-Aug-16 14:30N 37°46' W 122°40'1 1.1
2018-Aug-16 14:00N 37°47' W 122°40'1 1.6
2018-Aug-16 13:30N 37°46' W 122°40'1 1.0
2018-Aug-16 13:00N 37°46' W 122°40'1 1.6
2018-Aug-16 12:30N 37°47' W 122°39'1 1.2
2018-Aug-16 12:00N 37°46' W 122°40'1 2.4
2018-Aug-16 11:30N 37°45' W 122°41'1 2.3
2018-Aug-16 11:00N 37°44' W 122°41'2 4.1
2018-Aug-16 10:30N 37°46' W 122°40'1 1.8
2018-Aug-16 09:57N 37°46' W 122°41'1 2.2
2018-Aug-16 09:27N 37°47' W 122°39'0 0.7
2018-Aug-16 09:00N 37°47' W 122°39'1 1.9
2018-Aug-16 08:30N 37°47' W 122°40'1 2.2
2018-Aug-16 08:00N 37°47' W 122°39'1 1.2
2018-Aug-16 07:30N 37°47' W 122°39'1 1.8
2018-Aug-16 06:57N 37°46' W 122°41'1 2.7
2018-Aug-16 06:30N 37°45' W 122°39'1 1.4
2018-Aug-16 05:59N 37°45' W 122°39'1 2.7
2018-Aug-16 05:29N 37°44' W 122°41'2 3.6
2018-Aug-16 05:00N 37°46' W 122°40'1 1.1
2018-Aug-16 04:30N 37°46' W 122°40'0 0.9
2018-Aug-16 04:00N 37°46' W 122°40'1 1.8
2018-Aug-16 03:25N 37°46' W 122°39'1 1.5
2018-Aug-16 03:00N 37°46' W 122°39'1 2.5
2018-Aug-16 02:30N 37°46' W 122°41'2 2.8
2018-Aug-16 01:55N 37°44' W 122°41'3 6.5
2018-Aug-16 01:30N 37°46' W 122°39'0 0.1
2018-Aug-16 01:00N 37°46' W 122°39'0 0.7
2018-Aug-16 00:30N 37°46' W 122°40'0 0.6
2018-Aug-16 00:00N 37°46' W 122°40'0 0.9
2018-Aug-15 23:28N 37°46' W 122°40'2 3.1
2018-Aug-15 22:56N 37°46' W 122°42'1 1.9
2018-Aug-15 22:29N 37°46' W 122°41'1 2.5
2018-Aug-15 22:00N 37°46' W 122°39'3 5.1
2018-Aug-15 21:28N 37°44' W 122°41'3 6.5
2018-Aug-15 21:00N 37°46' W 122°38'2 5.0
2018-Aug-15 20:30N 37°47' W 122°35'510.1
2018-Aug-15 19:59N 37°46' W 122°42'2 4.4
2018-Aug-15 19:28N 37°46' W 122°39'0 0.2
2018-Aug-15 19:00N 37°46' W 122°39'1 2.4
2018-Aug-15 18:30N 37°47' W 122°40'1 2.3
2018-Aug-15 17:59N 37°46' W 122°40'0 1.0
2018-Aug-15 17:30N 37°46' W 122°40'1 1.1
2018-Aug-15 17:00N 37°46' W 122°40'1 1.1
2018-Aug-15 16:29N 37°46' W 122°39'1 3.0
2018-Aug-15 16:00N 37°46' W 122°37'5 9.4
2018-Aug-15 15:30N 37°48' W 122°32'3 5.9
2018-Aug-15 15:00N 37°49' W 122°28'510.6
2018-Aug-15 14:30N 37°47' W 122°34'4 8.8
2018-Aug-15 14:00N 37°47' W 122°40'1 1.4
2018-Aug-15 13:30N 37°47' W 122°39'1 2.3
2018-Aug-15 12:56N 37°46' W 122°41'1 1.8
2018-Aug-15 12:29N 37°47' W 122°40'1 2.6
2018-Aug-15 11:58N 37°46' W 122°38'1 2.4
2018-Aug-15 11:30N 37°45' W 122°39'2 4.1
2018-Aug-15 10:57N 37°44' W 122°41'1 1.2
2018-Aug-15 10:26N 37°44' W 122°41'1 2.6
2018-Aug-15 09:53N 37°46' W 122°42'1 2.3
2018-Aug-15 09:28N 37°46' W 122°41'1 2.2
2018-Aug-15 09:00N 37°47' W 122°40'1 1.7
2018-Aug-15 08:25N 37°46' W 122°39'2 5.2
2018-Aug-15 07:58N 37°44' W 122°41'1 1.5
2018-Aug-15 07:29N 37°44' W 122°42'0 0.3
2018-Aug-15 06:30N 37°44' W 122°41'1 2.1
2018-Aug-15 06:00N 37°44' W 122°40'0 0.4
2018-Aug-15 05:30N 37°44' W 122°40'1 1.2
2018-Aug-15 04:43N 37°44' W 122°41'1 5.0
2018-Aug-15 04:28N 37°44' W 122°43'1 2.9
2018-Aug-15 04:00N 37°44' W 122°41'1 1.1
2018-Aug-15 02:52N 37°44' W 122°39'1 1.7
2018-Aug-15 02:05N 37°44' W 122°41'2 7.5
2018-Aug-15 01:50N 37°46' W 122°39'1 1.5
2018-Aug-15 01:11N 37°46' W 122°40'0 1.3
2018-Aug-15 01:00N 37°46' W 122°40'1 2.1
2018-Aug-15 00:30N 37°47' W 122°39'1 2.0
2018-Aug-14 23:59N 37°46' W 122°40'1 1.7
2018-Aug-14 23:30N 37°47' W 122°39'1 1.5
2018-Aug-14 22:50N 37°46' W 122°40'1 3.2
2018-Aug-14 22:30N 37°47' W 122°41'0 0.7
2018-Aug-14 21:58N 37°47' W 122°41'2 4.6
2018-Aug-14 21:27N 37°44' W 122°41'1 1.3
2018-Aug-14 21:00N 37°45' W 122°41'3 5.9
2018-Aug-14 20:29N 37°47' W 122°39'3 6.6
2018-Aug-14 19:59N 37°51' W 122°40'1 2.9
2018-Aug-14 19:30N 37°51' W 122°42'2 2.8
2018-Aug-14 18:57N 37°53' W 122°43'1 1.8
2018-Aug-14 18:26N 37°52' W 122°42'1 2.1
2018-Aug-14 18:00N 37°51' W 122°41'1 2.5
2018-Aug-14 17:30N 37°50' W 122°41'3 6.3
2018-Aug-14 17:00N 37°47' W 122°40'1 2.1
2018-Aug-14 16:29N 37°46' W 122°40'2 4.5
2018-Aug-14 16:00N 37°44' W 122°41'1 1.0
2018-Aug-14 15:10N 37°44' W 122°40'0 2.3
2018-Aug-14 14:59N 37°44' W 122°40'1 2.6
2018-Aug-14 14:28N 37°46' W 122°40'1 1.4
2018-Aug-14 13:52N 37°46' W 122°41'1 2.1
2018-Aug-14 13:30N 37°46' W 122°40'0 0.6
2018-Aug-14 12:59N 37°46' W 122°40'1 1.1
2018-Aug-14 12:29N 37°46' W 122°39'1 1.4
2018-Aug-14 11:56N 37°46' W 122°40'0 1.0
2018-Aug-14 11:30N 37°46' W 122°40'1 2.6
2018-Aug-14 11:00N 37°46' W 122°41'0 0.3
2018-Aug-14 10:29N 37°46' W 122°41'1 1.9
2018-Aug-14 09:59N 37°45' W 122°40'1 1.3
2018-Aug-14 09:30N 37°46' W 122°39'1 2.4
2018-Aug-14 08:59N 37°45' W 122°41'2 3.7
2018-Aug-14 08:30N 37°47' W 122°41'1 1.3
2018-Aug-14 08:00N 37°46' W 122°40'1 1.6
2018-Aug-14 07:30N 37°46' W 122°39'2 4.5
2018-Aug-14 07:00N 37°44' W 122°41'2 3.1
2018-Aug-14 06:30N 37°45' W 122°39'4 8.6
2018-Aug-14 06:00N 37°47' W 122°34'4 8.2
2018-Aug-14 05:30N 37°49' W 122°30'5 9.7
2018-Aug-14 05:00N 37°47' W 122°35'4 7.7
2018-Aug-14 04:30N 37°46' W 122°40'1 1.3
2018-Aug-14 04:00N 37°46' W 122°39'0 1.0
2018-Aug-14 03:30N 37°45' W 122°39'1 2.6
2018-Aug-14 03:00N 37°46' W 122°40'1 1.4
2018-Aug-14 02:30N 37°46' W 122°40'1 1.2
2018-Aug-14 01:59N 37°46' W 122°39'1 1.1
2018-Aug-14 01:29N 37°46' W 122°40'1 1.1
2018-Aug-14 00:59N 37°46' W 122°40'1 2.7
2018-Aug-14 00:30N 37°47' W 122°39'1 1.3
2018-Aug-14 00:00N 37°46' W 122°38'1 1.7
2018-Aug-13 23:30N 37°46' W 122°39'1 1.8
2018-Aug-13 22:58N 37°46' W 122°40'0 0.4
2018-Aug-13 22:27N 37°46' W 122°39'0 0.8
2018-Aug-13 21:52N 37°47' W 122°39'1 2.3
2018-Aug-13 21:25N 37°47' W 122°40'1 1.8
2018-Aug-13 20:59N 37°48' W 122°39'1 1.0
2018-Aug-13 20:17N 37°47' W 122°40'1 2.2
2018-Aug-13 19:57N 37°47' W 122°39'1 2.5
2018-Aug-13 19:27N 37°46' W 122°38'3 6.5
2018-Aug-13 19:00N 37°45' W 122°42'1 1.8
2018-Aug-13 18:29N 37°45' W 122°41'1 2.2
2018-Aug-13 18:00N 37°46' W 122°40'1 2.2
2018-Aug-13 17:30N 37°46' W 122°38'1 1.3
2018-Aug-13 17:00N 37°46' W 122°39'2 2.4
2018-Aug-13 16:20N 37°46' W 122°41'1 3.3
2018-Aug-13 15:55N 37°44' W 122°42'1 1.3
2018-Aug-13 15:29N 37°44' W 122°41'2 4.3
2018-Aug-13 15:00N 37°45' W 122°39'1 1.0
2018-Aug-13 14:30N 37°45' W 122°39'1 1.5
2018-Aug-13 14:00N 37°46' W 122°40'1 1.9
2018-Aug-13 13:30N 37°46' W 122°41'1 1.1
2018-Aug-13 13:00N 37°46' W 122°40'1 1.8
2018-Aug-13 12:30N 37°45' W 122°39'2 3.1
2018-Aug-13 12:00N 37°45' W 122°41'1 1.4
2018-Aug-13 11:30N 37°45' W 122°41'1 1.6
2018-Aug-13 11:00N 37°45' W 122°41'3 5.8
2018-Aug-13 10:30N 37°46' W 122°38'5 9.4
2018-Aug-13 10:00N 37°48' W 122°33'4 7.1
2018-Aug-13 09:30N 37°49' W 122°28'2 5.0
2018-Aug-13 09:00N 37°48' W 122°31'1 2.0
2018-Aug-13 08:29N 37°47' W 122°32'2 4.0
2018-Aug-13 08:00N 37°47' W 122°34'2 4.1
2018-Aug-13 07:30N 37°46' W 122°36'3 5.1
2018-Aug-13 07:00N 37°45' W 122°39'1 2.4
2018-Aug-13 06:30N 37°45' W 122°41'1 2.2
2018-Aug-13 06:00N 37°45' W 122°39'0 0.7
2018-Aug-13 05:30N 37°45' W 122°39'1 2.5
2018-Aug-13 04:59N 37°46' W 122°41'1 2.4
2018-Aug-13 04:30N 37°44' W 122°40'1 1.2
2018-Aug-13 03:57N 37°45' W 122°40'1 1.4
2018-Aug-13 03:31N 37°46' W 122°40'1 2.2
2018-Aug-13 03:00N 37°47' W 122°40'2 3.6
2018-Aug-13 02:30N 37°47' W 122°38'1 2.0
2018-Aug-13 02:00N 37°47' W 122°39'0 0.9
2018-Aug-13 01:30N 37°46' W 122°39'1 2.5
2018-Aug-13 00:55N 37°46' W 122°41'0 0.8
2018-Aug-13 00:30N 37°46' W 122°40'0 0.1
2018-Aug-12 23:38N 37°46' W 122°40'0 3.0
2018-Aug-12 23:30N 37°46' W 122°40'0 0.6
2018-Aug-12 22:59N 37°46' W 122°39'2 3.0
2018-Aug-12 22:29N 37°45' W 122°41'1 1.1
2018-Aug-12 22:00N 37°45' W 122°41'1 1.1
2018-Aug-12 21:24N 37°45' W 122°41'1 1.6
2018-Aug-12 20:57N 37°45' W 122°41'2 3.3
2018-Aug-12 20:28N 37°47' W 122°40'1 2.7
2018-Aug-12 20:00N 37°46' W 122°42'1 2.7
2018-Aug-12 19:30N 37°45' W 122°41'2 3.1
2018-Aug-12 19:00N 37°44' W 122°40'2 4.2
2018-Aug-12 18:30N 37°46' W 122°41'1 1.6
2018-Aug-12 18:00N 37°46' W 122°40'1 2.4
2018-Aug-12 17:24N 37°46' W 122°42'2 4.5
2018-Aug-12 17:00N 37°44' W 122°41'0 0.3
2018-Aug-12 16:30N 37°44' W 122°41'510.5
2018-Aug-12 16:00N 37°47' W 122°35'612.0
2018-Aug-12 15:30N 37°49' W 122°29'4 7.8
2018-Aug-12 15:00N 37°48' W 122°24'0 0.2
2018-Aug-12 14:30N 37°48' W 122°24'0 0.2
2018-Aug-12 14:00N 37°48' W 122°24'0 0.0
2018-Aug-12 12:09N 37°48' W 122°24'0 0.0
2018-Aug-12 12:00N 37°48' W 122°24'2 3.1
2018-Aug-12 11:30N 37°49' W 122°25'510.5
2018-Aug-12 11:01N 37°48' W 122°32'510.6
2018-Aug-12 10:30N 37°45' W 122°38'2 3.9
2018-Aug-12 10:00N 37°45' W 122°40'3 5.4
2018-Aug-12 09:30N 37°46' W 122°37'612.6
2018-Aug-12 09:01N 37°49' W 122°30'510.0
2018-Aug-12 08:30N 37°48' W 122°24'0 0.0
2018-Aug-12 08:00N 37°48' W 122°24'0 0.0
2018-Aug-12 07:30N 37°48' W 122°24'0 0.0
2018-Aug-12 07:00N 37°48' W 122°24'0 0.0
2018-Aug-12 06:30N 37°48' W 122°24'0 0.0
2018-Aug-12 06:00N 37°48' W 122°24'0 0.0
2018-Aug-12 05:30N 37°48' W 122°24'0 0.0
2018-Aug-12 05:00N 37°48' W 122°24'0 0.0
2018-Aug-12 04:30N 37°48' W 122°24'0 0.0
2018-Aug-12 04:00N 37°48' W 122°24'0 0.0
2018-Aug-12 03:30N 37°48' W 122°24'0 0.0
2018-Aug-12 03:00N 37°48' W 122°24'3 6.0
2018-Aug-12 02:31N 37°49' W 122°27'612.9
2018-Aug-12 02:01N 37°47' W 122°35'3 4.4
2018-Aug-12 01:26N 37°46' W 122°38'3 5.8
2018-Aug-12 00:59N 37°46' W 122°42'2 4.8
2018-Aug-12 00:30N 37°46' W 122°39'0 0.5
2018-Aug-12 00:00N 37°46' W 122°39'0 0.3
2018-Aug-11 23:30N 37°46' W 122°39'1 1.7
2018-Aug-11 23:00N 37°46' W 122°38'1 1.5
2018-Aug-11 22:30N 37°46' W 122°39'1 2.5
2018-Aug-11 22:00N 37°46' W 122°37'2 2.7
2018-Aug-11 21:27N 37°46' W 122°39'0 0.6
2018-Aug-11 21:00N 37°46' W 122°40'1 1.0
2018-Aug-11 20:27N 37°46' W 122°39'0 0.8
2018-Aug-11 19:59N 37°46' W 122°39'1 1.6
2018-Aug-11 19:30N 37°46' W 122°38'1 1.0
2018-Aug-11 19:00N 37°47' W 122°38'0 0.8
2018-Aug-11 18:30N 37°47' W 122°38'5 9.0
2018-Aug-11 17:59N 37°44' W 122°42'1 2.6
2018-Aug-11 17:26N 37°45' W 122°41'1 2.0
2018-Aug-11 17:00N 37°45' W 122°40'2 2.5
2018-Aug-11 16:13N 37°47' W 122°41'1 2.5
2018-Aug-11 15:59N 37°47' W 122°42'0 1.0
2018-Aug-11 15:30N 37°47' W 122°41'1 2.2
2018-Aug-11 15:00N 37°47' W 122°40'1 2.9
2018-Aug-11 14:30N 37°47' W 122°38'1 2.1
2018-Aug-11 14:00N 37°47' W 122°37'1 2.7
2018-Aug-11 13:30N 37°46' W 122°39'1 1.7
2018-Aug-11 12:59N 37°46' W 122°40'1 1.5
2018-Aug-11 12:30N 37°46' W 122°40'1 1.5
2018-Aug-11 12:00N 37°45' W 122°40'1 1.2
2018-Aug-11 11:29N 37°44' W 122°41'0 0.9
2018-Aug-11 11:00N 37°45' W 122°40'1 2.6
2018-Aug-11 10:29N 37°46' W 122°41'1 2.3
2018-Aug-11 10:00N 37°46' W 122°42'1 2.0
2018-Aug-11 09:29N 37°45' W 122°41'1 2.4
2018-Aug-11 09:00N 37°46' W 122°40'1 2.1
2018-Aug-11 08:30N 37°46' W 122°41'0 0.3
2018-Aug-11 07:59N 37°46' W 122°41'0 0.9
2018-Aug-11 07:30N 37°46' W 122°40'1 2.5
2018-Aug-11 07:00N 37°47' W 122°42'1 1.3
2018-Aug-11 06:27N 37°47' W 122°41'1 2.1
2018-Aug-11 06:00N 37°46' W 122°40'1 2.4
2018-Aug-11 05:30N 37°45' W 122°40'2 3.5
2018-Aug-11 05:00N 37°46' W 122°42'1 2.5
2018-Aug-11 04:29N 37°47' W 122°43'2 3.3
2018-Aug-11 04:00N 37°47' W 122°41'1 2.9
2018-Aug-11 03:30N 37°47' W 122°39'1 2.5
2018-Aug-11 03:00N 37°46' W 122°39'0 0.7
2018-Aug-11 02:30N 37°46' W 122°39'1 1.8
2018-Aug-11 02:00N 37°46' W 122°40'1 2.1
2018-Aug-11 01:30N 37°46' W 122°39'2 3.2
2018-Aug-11 01:01N 37°46' W 122°40'2 4.3
2018-Aug-11 00:30N 37°45' W 122°38'2 4.2
2018-Aug-11 00:00N 37°45' W 122°40'1 2.1
2018-Aug-10 23:30N 37°46' W 122°40'1 2.7
2018-Aug-10 23:00N 37°46' W 122°38'0 0.5
2018-Aug-10 22:30N 37°46' W 122°38'2 3.4
2018-Aug-10 22:00N 37°46' W 122°40'3 5.1
2018-Aug-10 21:30N 37°47' W 122°37'3 5.1
2018-Aug-10 21:01N 37°47' W 122°34'3 5.4
2018-Aug-10 20:30N 37°48' W 122°31'611.1
2018-Aug-10 20:00N 37°48' W 122°24'0 0.3
2018-Aug-10 19:30N 37°48' W 122°24'0 0.0
2018-Aug-10 19:00N 37°48' W 122°24'0 0.0
2018-Aug-10 18:30N 37°48' W 122°24'0 0.0
2018-Aug-10 18:00N 37°48' W 122°24'0 0.0
2018-Aug-10 17:30N 37°48' W 122°24'0 0.0
2018-Aug-10 17:00N 37°48' W 122°24'0 0.0
2018-Aug-09 23:22N 37°48' W 122°24'0 0.0
2018-Aug-09 23:00N 37°48' W 122°24'  
Track history (hours):
 
Tides and Currents Weather Stations Pressure Air Temp Water Temp Dewpoint Dewpoint Depression Visibility Wind Speed Wind Dir Waves Ship Positions

P/v San Francisco

Owner: San Francisco Bar Pilots Benevolent and Protective, SAN FRANCISCO, CA. More information available from US FCC via Universal Licensing System and Coast Guard Vessel Documentation Center.

Last reported at 2018-Aug-19 21:53 UTC. Time now 2018-Aug-20 16:46 UTC.
Position N 37°48' W 122°24'.

Length 33 m.

Type: Pilot. MMSI: 366798310.

Date/timePositionNaut miles runAvg speedWind from/ knotsBaromVisibWave heightAir tempDewpointWater temp
2018-Aug-19 21:53N 37°48' W 122°24'0 0.0
2018-Aug-19 21:30N 37°48' W 122°24'0 0.0
2018-Aug-19 21:00N 37°48' W 122°24'0 0.0
2018-Aug-19 20:30N 37°48' W 122°24'0 0.0
2018-Aug-19 20:00N 37°48' W 122°24'0 0.0
2018-Aug-19 17:17N 37°48' W 122°24'0 0.0
2018-Aug-19 17:00N 37°48' W 122°24'0 0.0
2018-Aug-19 16:29N 37°48' W 122°24'0 0.0
2018-Aug-19 15:59N 37°48' W 122°24'0 0.0
2018-Aug-19 15:30N 37°48' W 122°24'0 0.0
2018-Aug-19 15:00N 37°48' W 122°24'0 0.0
2018-Aug-19 14:30N 37°48' W 122°24'1 1.5
2018-Aug-19 14:00N 37°49' W 122°24'713.6
2018-Aug-19 13:30N 37°48' W 122°32'611.9
2018-Aug-19 13:00N 37°46' W 122°40'1 1.3
2018-Aug-19 12:30N 37°46' W 122°40'1 1.9
2018-Aug-19 12:00N 37°46' W 122°41'1 1.3
2018-Aug-19 11:30N 37°46' W 122°40'1 2.5
2018-Aug-19 11:00N 37°45' W 122°41'1 1.4
2018-Aug-19 10:30N 37°45' W 122°42'1 2.3
2018-Aug-19 10:00N 37°45' W 122°41'0 0.6
2018-Aug-19 09:28N 37°45' W 122°40'1 2.1
2018-Aug-19 08:59N 37°44' W 122°42'2 3.3
2018-Aug-19 08:30N 37°44' W 122°44'2 3.6
2018-Aug-19 08:00N 37°45' W 122°42'1 1.3
2018-Aug-19 07:15N 37°46' W 122°41'1 3.5
2018-Aug-19 06:59N 37°45' W 122°40'1 1.7
2018-Aug-19 06:28N 37°46' W 122°41'1 2.6
2018-Aug-19 06:00N 37°46' W 122°39'2 4.1
2018-Aug-19 05:30N 37°46' W 122°37'1 2.0
2018-Aug-19 04:59N 37°46' W 122°38'2 4.6
2018-Aug-19 04:30N 37°45' W 122°40'0 0.5
2018-Aug-19 04:00N 37°45' W 122°40'2 3.0
2018-Aug-19 03:31N 37°46' W 122°41'1 2.7
2018-Aug-19 03:00N 37°46' W 122°42'1 2.2
2018-Aug-19 02:26N 37°46' W 122°41'1 1.3
2018-Aug-19 02:00N 37°46' W 122°40'2 3.2
2018-Aug-19 01:28N 37°46' W 122°42'1 0.9
2018-Aug-19 00:49N 37°46' W 122°41'1 2.4
2018-Aug-19 00:27N 37°46' W 122°41'1 2.4
2018-Aug-19 00:00N 37°45' W 122°39'1 1.6
2018-Aug-18 23:29N 37°45' W 122°41'1 3.1
2018-Aug-18 23:00N 37°45' W 122°42'2 2.1
2018-Aug-18 22:17N 37°45' W 122°40'1 2.3
2018-Aug-18 22:00N 37°44' W 122°41'2 5.0
2018-Aug-18 21:30N 37°47' W 122°40'1 1.2
2018-Aug-18 21:00N 37°46' W 122°40'1 1.5
2018-Aug-18 20:30N 37°47' W 122°41'1 2.4
2018-Aug-18 20:00N 37°46' W 122°40'1 2.8
2018-Aug-18 19:28N 37°45' W 122°41'0 0.8
2018-Aug-18 19:00N 37°45' W 122°41'1 2.6
2018-Aug-18 18:29N 37°46' W 122°40'0 0.7
2018-Aug-18 17:58N 37°46' W 122°41'1 2.9
2018-Aug-18 17:30N 37°46' W 122°39'2 3.1
2018-Aug-18 17:01N 37°46' W 122°37'713.1
2018-Aug-18 16:30N 37°49' W 122°29'5 9.2
2018-Aug-18 16:00N 37°48' W 122°24'0 0.0
2018-Aug-18 15:30N 37°48' W 122°24'0 0.0
2018-Aug-18 15:00N 37°48' W 122°24'0 0.0
2018-Aug-18 14:30N 37°48' W 122°24'0 0.0
2018-Aug-18 14:00N 37°48' W 122°24'0 0.0
2018-Aug-18 12:22N 37°48' W 122°24'1 3.2
2018-Aug-18 12:00N 37°49' W 122°25'714.1
2018-Aug-18 11:30N 37°47' W 122°33'712.1
2018-Aug-18 10:58N 37°45' W 122°41'1 1.8
2018-Aug-18 10:28N 37°46' W 122°41'1 1.8
2018-Aug-18 10:00N 37°46' W 122°40'1 2.2
2018-Aug-18 09:30N 37°47' W 122°41'1 1.7
2018-Aug-18 09:00N 37°46' W 122°40'1 1.5
2018-Aug-18 08:30N 37°46' W 122°41'1 2.0
2018-Aug-18 08:00N 37°46' W 122°43'1 2.2
2018-Aug-18 07:26N 37°45' W 122°41'1 2.4
2018-Aug-18 07:00N 37°45' W 122°40'1 1.8
2018-Aug-18 06:29N 37°45' W 122°39'1 2.7
2018-Aug-18 06:00N 37°44' W 122°41'0 0.5
2018-Aug-18 05:27N 37°44' W 122°41'1 2.0
2018-Aug-18 05:00N 37°45' W 122°40'1 1.2
2018-Aug-18 04:30N 37°45' W 122°40'1 1.9
2018-Aug-18 03:59N 37°45' W 122°40'1 2.8
2018-Aug-18 03:30N 37°47' W 122°40'1 1.9
2018-Aug-18 03:00N 37°47' W 122°39'1 1.6
2018-Aug-18 02:30N 37°47' W 122°38'1 2.7
2018-Aug-18 01:59N 37°46' W 122°40'1 1.6
2018-Aug-18 01:30N 37°46' W 122°40'1 1.7
2018-Aug-18 01:00N 37°45' W 122°41'2 3.6
2018-Aug-18 00:30N 37°44' W 122°41'2 4.0
2018-Aug-18 00:00N 37°46' W 122°40'1 2.4
2018-Aug-17 23:29N 37°47' W 122°40'2 3.1
2018-Aug-17 22:59N 37°46' W 122°38'2 3.8
2018-Aug-17 22:28N 37°45' W 122°40'1 1.4
2018-Aug-17 22:00N 37°46' W 122°40'1 2.5
2018-Aug-17 21:30N 37°46' W 122°38'1 2.5
2018-Aug-17 21:00N 37°47' W 122°37'0 0.4
2018-Aug-17 20:27N 37°47' W 122°38'2 2.7
2018-Aug-17 19:52N 37°46' W 122°39'1 1.7
2018-Aug-17 19:30N 37°46' W 122°39'1 1.6
2018-Aug-17 19:00N 37°45' W 122°40'1 1.6
2018-Aug-17 18:30N 37°45' W 122°41'1 2.4
2018-Aug-17 17:59N 37°46' W 122°41'1 1.6
2018-Aug-17 17:30N 37°46' W 122°40'4 8.2
2018-Aug-17 17:00N 37°47' W 122°35'714.2
2018-Aug-17 16:30N 37°49' W 122°26'2 4.5
2018-Aug-17 16:00N 37°48' W 122°24'0 0.7
2018-Aug-17 15:30N 37°48' W 122°24'510.8
2018-Aug-17 15:01N 37°48' W 122°31'6 6.2
2018-Aug-17 14:01N 37°47' W 122°38'2 4.3
2018-Aug-17 13:30N 37°47' W 122°41'1 1.8
2018-Aug-17 13:00N 37°47' W 122°40'1 2.3
2018-Aug-17 12:30N 37°46' W 122°39'1 2.1
2018-Aug-17 12:00N 37°46' W 122°38'510.7
2018-Aug-17 11:30N 37°48' W 122°32'4 8.1
2018-Aug-17 11:00N 37°49' W 122°27'5 9.2
2018-Aug-17 10:30N 37°48' W 122°32'4 8.0
2018-Aug-17 10:00N 37°46' W 122°37'4 7.5
2018-Aug-17 09:30N 37°44' W 122°41'1 2.8
2018-Aug-17 09:00N 37°46' W 122°41'1 1.0
2018-Aug-17 08:30N 37°46' W 122°41'2 3.4
2018-Aug-17 08:00N 37°46' W 122°43'1 1.2
2018-Aug-17 07:30N 37°46' W 122°43'1 2.3
2018-Aug-17 07:00N 37°45' W 122°42'1 2.3
2018-Aug-17 06:29N 37°44' W 122°42'1 2.1
2018-Aug-17 06:00N 37°45' W 122°42'1 2.1
2018-Aug-17 05:30N 37°46' W 122°42'2 3.2
2018-Aug-17 05:00N 37°44' W 122°40'1 1.0
2018-Aug-17 04:30N 37°44' W 122°41'1 2.3
2018-Aug-17 04:00N 37°45' W 122°40'1 1.8
2018-Aug-17 03:27N 37°46' W 122°39'1 1.9
2018-Aug-17 02:58N 37°46' W 122°40'0 0.8
2018-Aug-17 02:30N 37°46' W 122°40'1 1.8
2018-Aug-17 02:00N 37°45' W 122°39'1 2.0
2018-Aug-17 01:30N 37°46' W 122°39'1 1.9
2018-Aug-17 00:59N 37°46' W 122°38'2 4.4
2018-Aug-17 00:29N 37°46' W 122°40'0 1.0
2018-Aug-17 00:00N 37°46' W 122°40'1 1.3
2018-Aug-16 23:30N 37°47' W 122°39'1 1.5
2018-Aug-16 23:00N 37°46' W 122°40'0 0.5
2018-Aug-16 22:30N 37°46' W 122°40'1 2.1
2018-Aug-16 22:00N 37°46' W 122°39'1 1.6
2018-Aug-16 21:28N 37°46' W 122°38'1 2.2
2018-Aug-16 20:59N 37°47' W 122°39'0 0.7
2018-Aug-16 20:30N 37°47' W 122°39'1 1.8
2018-Aug-16 20:00N 37°46' W 122°39'0 0.7
2018-Aug-16 19:30N 37°46' W 122°39'1 2.5
2018-Aug-16 19:00N 37°46' W 122°37'3 6.0
2018-Aug-16 18:30N 37°47' W 122°34'1 2.8
2018-Aug-16 18:00N 37°48' W 122°32'611.7
2018-Aug-16 17:30N 37°46' W 122°39'1 1.7
2018-Aug-16 17:00N 37°47' W 122°40'1 2.1
2018-Aug-16 16:30N 37°46' W 122°39'1 1.7
2018-Aug-16 16:00N 37°46' W 122°39'0 0.8
2018-Aug-16 15:30N 37°47' W 122°39'1 1.0
2018-Aug-16 15:00N 37°46' W 122°39'1 1.4
2018-Aug-16 14:30N 37°46' W 122°40'1 1.1
2018-Aug-16 14:00N 37°47' W 122°40'1 1.6
2018-Aug-16 13:30N 37°46' W 122°40'1 1.0
2018-Aug-16 13:00N 37°46' W 122°40'1 1.6
2018-Aug-16 12:30N 37°47' W 122°39'1 1.2
2018-Aug-16 12:00N 37°46' W 122°40'1 2.4
2018-Aug-16 11:30N 37°45' W 122°41'1 2.3
2018-Aug-16 11:00N 37°44' W 122°41'2 4.1
2018-Aug-16 10:30N 37°46' W 122°40'1 1.8
2018-Aug-16 09:57N 37°46' W 122°41'1 2.2
2018-Aug-16 09:27N 37°47' W 122°39'0 0.7
2018-Aug-16 09:00N 37°47' W 122°39'1 1.9
2018-Aug-16 08:30N 37°47' W 122°40'1 2.2
2018-Aug-16 08:00N 37°47' W 122°39'1 1.2
2018-Aug-16 07:30N 37°47' W 122°39'1 1.8
2018-Aug-16 06:57N 37°46' W 122°41'1 2.7
2018-Aug-16 06:30N 37°45' W 122°39'1 1.4
2018-Aug-16 05:59N 37°45' W 122°39'1 2.7
2018-Aug-16 05:29N 37°44' W 122°41'2 3.6
2018-Aug-16 05:00N 37°46' W 122°40'1 1.1
2018-Aug-16 04:30N 37°46' W 122°40'0 0.9
2018-Aug-16 04:00N 37°46' W 122°40'1 1.8
2018-Aug-16 03:25N 37°46' W 122°39'1 1.5
2018-Aug-16 03:00N 37°46' W 122°39'1 2.5
2018-Aug-16 02:30N 37°46' W 122°41'2 2.8
2018-Aug-16 01:55N 37°44' W 122°41'3 6.5
2018-Aug-16 01:30N 37°46' W 122°39'0 0.1
2018-Aug-16 01:00N 37°46' W 122°39'0 0.7
2018-Aug-16 00:30N 37°46' W 122°40'0 0.6
2018-Aug-16 00:00N 37°46' W 122°40'0 0.9
2018-Aug-15 23:28N 37°46' W 122°40'2 3.1
2018-Aug-15 22:56N 37°46' W 122°42'1 1.9
2018-Aug-15 22:29N 37°46' W 122°41'1 2.5
2018-Aug-15 22:00N 37°46' W 122°39'3 5.1
2018-Aug-15 21:28N 37°44' W 122°41'3 6.5
2018-Aug-15 21:00N 37°46' W 122°38'2 5.0
2018-Aug-15 20:30N 37°47' W 122°35'510.1
2018-Aug-15 19:59N 37°46' W 122°42'2 4.4
2018-Aug-15 19:28N 37°46' W 122°39'0 0.2
2018-Aug-15 19:00N 37°46' W 122°39'1 2.4
2018-Aug-15 18:30N 37°47' W 122°40'1 2.3
2018-Aug-15 17:59N 37°46' W 122°40'0 1.0
2018-Aug-15 17:30N 37°46' W 122°40'1 1.1
2018-Aug-15 17:00N 37°46' W 122°40'1 1.1
2018-Aug-15 16:29N 37°46' W 122°39'1 3.0
2018-Aug-15 16:00N 37°46' W 122°37'5 9.4
2018-Aug-15 15:30N 37°48' W 122°32'3 5.9
2018-Aug-15 15:00N 37°49' W 122°28'510.6
2018-Aug-15 14:30N 37°47' W 122°34'4 8.8
2018-Aug-15 14:00N 37°47' W 122°40'1 1.4
2018-Aug-15 13:30N 37°47' W 122°39'1 2.3
2018-Aug-15 12:56N 37°46' W 122°41'1 1.8
2018-Aug-15 12:29N 37°47' W 122°40'1 2.6
2018-Aug-15 11:58N 37°46' W 122°38'1 2.4
2018-Aug-15 11:30N 37°45' W 122°39'2 4.1
2018-Aug-15 10:57N 37°44' W 122°41'1 1.2
2018-Aug-15 10:26N 37°44' W 122°41'1 2.6
2018-Aug-15 09:53N 37°46' W 122°42'1 2.3
2018-Aug-15 09:28N 37°46' W 122°41'1 2.2
2018-Aug-15 09:00N 37°47' W 122°40'1 1.7
2018-Aug-15 08:25N 37°46' W 122°39'2 5.2
2018-Aug-15 07:58N 37°44' W 122°41'1 1.5
2018-Aug-15 07:29N 37°44' W 122°42'0 0.3
2018-Aug-15 06:30N 37°44' W 122°41'1 2.1
2018-Aug-15 06:00N 37°44' W 122°40'0 0.4
2018-Aug-15 05:30N 37°44' W 122°40'1 1.2
2018-Aug-15 04:43N 37°44' W 122°41'1 5.0
2018-Aug-15 04:28N 37°44' W 122°43'1 2.9
2018-Aug-15 04:00N 37°44' W 122°41'1 1.1
2018-Aug-15 02:52N 37°44' W 122°39'1 1.7
2018-Aug-15 02:05N 37°44' W 122°41'2 7.5
2018-Aug-15 01:50N 37°46' W 122°39'1 1.5
2018-Aug-15 01:11N 37°46' W 122°40'0 1.3
2018-Aug-15 01:00N 37°46' W 122°40'1 2.1
2018-Aug-15 00:30N 37°47' W 122°39'1 2.0
2018-Aug-14 23:59N 37°46' W 122°40'1 1.7
2018-Aug-14 23:30N 37°47' W 122°39'1 1.5
2018-Aug-14 22:50N 37°46' W 122°40'1 3.2
2018-Aug-14 22:30N 37°47' W 122°41'0 0.7
2018-Aug-14 21:58N 37°47' W 122°41'2 4.6
2018-Aug-14 21:27N 37°44' W 122°41'1 1.3
2018-Aug-14 21:00N 37°45' W 122°41'3 5.9
2018-Aug-14 20:29N 37°47' W 122°39'3 6.6
2018-Aug-14 19:59N 37°51' W 122°40'1 2.9
2018-Aug-14 19:30N 37°51' W 122°42'2 2.8
2018-Aug-14 18:57N 37°53' W 122°43'1 1.8
2018-Aug-14 18:26N 37°52' W 122°42'1 2.1
2018-Aug-14 18:00N 37°51' W 122°41'1 2.5
2018-Aug-14 17:30N 37°50' W 122°41'3 6.3
2018-Aug-14 17:00N 37°47' W 122°40'1 2.1
2018-Aug-14 16:29N 37°46' W 122°40'2 4.5
2018-Aug-14 16:00N 37°44' W 122°41'1 1.0
2018-Aug-14 15:10N 37°44' W 122°40'0 2.3
2018-Aug-14 14:59N 37°44' W 122°40'1 2.6
2018-Aug-14 14:28N 37°46' W 122°40'1 1.4
2018-Aug-14 13:52N 37°46' W 122°41'1 2.1
2018-Aug-14 13:30N 37°46' W 122°40'0 0.6
2018-Aug-14 12:59N 37°46' W 122°40'1 1.1
2018-Aug-14 12:29N 37°46' W 122°39'1 1.4
2018-Aug-14 11:56N 37°46' W 122°40'0 1.0
2018-Aug-14 11:30N 37°46' W 122°40'1 2.6
2018-Aug-14 11:00N 37°46' W 122°41'0 0.3
2018-Aug-14 10:29N 37°46' W 122°41'1 1.9
2018-Aug-14 09:59N 37°45' W 122°40'1 1.3
2018-Aug-14 09:30N 37°46' W 122°39'1 2.4
2018-Aug-14 08:59N 37°45' W 122°41'2 3.7
2018-Aug-14 08:30N 37°47' W 122°41'1 1.3
2018-Aug-14 08:00N 37°46' W 122°40'1 1.6
2018-Aug-14 07:30N 37°46' W 122°39'2 4.5
2018-Aug-14 07:00N 37°44' W 122°41'2 3.1
2018-Aug-14 06:30N 37°45' W 122°39'4 8.6
2018-Aug-14 06:00N 37°47' W 122°34'4 8.2
2018-Aug-14 05:30N 37°49' W 122°30'5 9.7
2018-Aug-14 05:00N 37°47' W 122°35'4 7.7
2018-Aug-14 04:30N 37°46' W 122°40'1 1.3
2018-Aug-14 04:00N 37°46' W 122°39'0 1.0
2018-Aug-14 03:30N 37°45' W 122°39'1 2.6
2018-Aug-14 03:00N 37°46' W 122°40'1 1.4
2018-Aug-14 02:30N 37°46' W 122°40'1 1.2
2018-Aug-14 01:59N 37°46' W 122°39'1 1.1
2018-Aug-14 01:29N 37°46' W 122°40'1 1.1
2018-Aug-14 00:59N 37°46' W 122°40'1 2.7
2018-Aug-14 00:30N 37°47' W 122°39'1 1.3
2018-Aug-14 00:00N 37°46' W 122°38'1 1.7
2018-Aug-13 23:30N 37°46' W 122°39'1 1.8
2018-Aug-13 22:58N 37°46' W 122°40'0 0.4
2018-Aug-13 22:27N 37°46' W 122°39'0 0.8
2018-Aug-13 21:52N 37°47' W 122°39'1 2.3
2018-Aug-13 21:25N 37°47' W 122°40'1 1.8
2018-Aug-13 20:59N 37°48' W 122°39'1 1.0
2018-Aug-13 20:17N 37°47' W 122°40'1 2.2
2018-Aug-13 19:57N 37°47' W 122°39'1 2.5
2018-Aug-13 19:27N 37°46' W 122°38'3 6.5
2018-Aug-13 19:00N 37°45' W 122°42'1 1.8
2018-Aug-13 18:29N 37°45' W 122°41'1 2.2
2018-Aug-13 18:00N 37°46' W 122°40'1 2.2
2018-Aug-13 17:30N 37°46' W 122°38'1 1.3
2018-Aug-13 17:00N 37°46' W 122°39'2 2.4
2018-Aug-13 16:20N 37°46' W 122°41'1 3.3
2018-Aug-13 15:55N 37°44' W 122°42'1 1.3
2018-Aug-13 15:29N 37°44' W 122°41'2 4.3
2018-Aug-13 15:00N 37°45' W 122°39'1 1.0
2018-Aug-13 14:30N 37°45' W 122°39'1 1.5
2018-Aug-13 14:00N 37°46' W 122°40'1 1.9
2018-Aug-13 13:30N 37°46' W 122°41'1 1.1
2018-Aug-13 13:00N 37°46' W 122°40'1 1.8
2018-Aug-13 12:30N 37°45' W 122°39'2 3.1
2018-Aug-13 12:00N 37°45' W 122°41'1 1.4
2018-Aug-13 11:30N 37°45' W 122°41'1 1.6
2018-Aug-13 11:00N 37°45' W 122°41'3 5.8
2018-Aug-13 10:30N 37°46' W 122°38'5 9.4
2018-Aug-13 10:00N 37°48' W 122°33'4 7.1
2018-Aug-13 09:30N 37°49' W 122°28'2 5.0
2018-Aug-13 09:00N 37°48' W 122°31'1 2.0
2018-Aug-13 08:29N 37°47' W 122°32'2 4.0
2018-Aug-13 08:00N 37°47' W 122°34'2 4.1
2018-Aug-13 07:30N 37°46' W 122°36'3 5.1
2018-Aug-13 07:00N 37°45' W 122°39'1 2.4
2018-Aug-13 06:30N 37°45' W 122°41'1 2.2
2018-Aug-13 06:00N 37°45' W 122°39'0 0.7
2018-Aug-13 05:30N 37°45' W 122°39'1 2.5
2018-Aug-13 04:59N 37°46' W 122°41'1 2.4
2018-Aug-13 04:30N 37°44' W 122°40'1 1.2
2018-Aug-13 03:57N 37°45' W 122°40'1 1.4
2018-Aug-13 03:31N 37°46' W 122°40'1 2.2
2018-Aug-13 03:00N 37°47' W 122°40'2 3.6
2018-Aug-13 02:30N 37°47' W 122°38'1 2.0
2018-Aug-13 02:00N 37°47' W 122°39'0 0.9
2018-Aug-13 01:30N 37°46' W 122°39'1 2.5
2018-Aug-13 00:55N 37°46' W 122°41'0 0.8
2018-Aug-13 00:30N 37°46' W 122°40'0 0.1
2018-Aug-12 23:38N 37°46' W 122°40'0 3.0
2018-Aug-12 23:30N 37°46' W 122°40'0 0.6
2018-Aug-12 22:59N 37°46' W 122°39'2 3.0
2018-Aug-12 22:29N 37°45' W 122°41'1 1.1
2018-Aug-12 22:00N 37°45' W 122°41'1 1.1
2018-Aug-12 21:24N 37°45' W 122°41'1 1.6
2018-Aug-12 20:57N 37°45' W 122°41'2 3.3
2018-Aug-12 20:28N 37°47' W 122°40'1 2.7
2018-Aug-12 20:00N 37°46' W 122°42'1 2.7
2018-Aug-12 19:30N 37°45' W 122°41'2 3.1
2018-Aug-12 19:00N 37°44' W 122°40'2 4.2
2018-Aug-12 18:30N 37°46' W 122°41'1 1.6
2018-Aug-12 18:00N 37°46' W 122°40'1 2.4
2018-Aug-12 17:24N 37°46' W 122°42'2 4.5
2018-Aug-12 17:00N 37°44' W 122°41'0 0.3
2018-Aug-12 16:30N 37°44' W 122°41'510.5
2018-Aug-12 16:00N 37°47' W 122°35'612.0
2018-Aug-12 15:30N 37°49' W 122°29'4 7.8
2018-Aug-12 15:00N 37°48' W 122°24'0 0.2
2018-Aug-12 14:30N 37°48' W 122°24'0 0.2
2018-Aug-12 14:00N 37°48' W 122°24'0 0.0
2018-Aug-12 12:09N 37°48' W 122°24'0 0.0
2018-Aug-12 12:00N 37°48' W 122°24'2 3.1
2018-Aug-12 11:30N 37°49' W 122°25'510.5
2018-Aug-12 11:01N 37°48' W 122°32'510.6
2018-Aug-12 10:30N 37°45' W 122°38'2 3.9
2018-Aug-12 10:00N 37°45' W 122°40'3 5.4
2018-Aug-12 09:30N 37°46' W 122°37'612.6
2018-Aug-12 09:01N 37°49' W 122°30'510.0
2018-Aug-12 08:30N 37°48' W 122°24'0 0.0
2018-Aug-12 08:00N 37°48' W 122°24'0 0.0
2018-Aug-12 07:30N 37°48' W 122°24'0 0.0
2018-Aug-12 07:00N 37°48' W 122°24'0 0.0
2018-Aug-12 06:30N 37°48' W 122°24'0 0.0
2018-Aug-12 06:00N 37°48' W 122°24'0 0.0
2018-Aug-12 05:30N 37°48' W 122°24'0 0.0
2018-Aug-12 05:00N 37°48' W 122°24'0 0.0
2018-Aug-12 04:30N 37°48' W 122°24'0 0.0
2018-Aug-12 04:00N 37°48' W 122°24'0 0.0
2018-Aug-12 03:30N 37°48' W 122°24'0 0.0
2018-Aug-12 03:00N 37°48' W 122°24'3 6.0
2018-Aug-12 02:31N 37°49' W 122°27'612.9
2018-Aug-12 02:01N 37°47' W 122°35'3 4.4
2018-Aug-12 01:26N 37°46' W 122°38'3 5.8
2018-Aug-12 00:59N 37°46' W 122°42'2 4.8
2018-Aug-12 00:30N 37°46' W 122°39'0 0.5
2018-Aug-12 00:00N 37°46' W 122°39'0 0.3
2018-Aug-11 23:30N 37°46' W 122°39'1 1.7
2018-Aug-11 23:00N 37°46' W 122°38'1 1.5
2018-Aug-11 22:30N 37°46' W 122°39'1 2.5
2018-Aug-11 22:00N 37°46' W 122°37'2 2.7
2018-Aug-11 21:27N 37°46' W 122°39'0 0.6
2018-Aug-11 21:00N 37°46' W 122°40'1 1.0
2018-Aug-11 20:27N 37°46' W 122°39'0 0.8
2018-Aug-11 19:59N 37°46' W 122°39'1 1.6
2018-Aug-11 19:30N 37°46' W 122°38'1 1.0
2018-Aug-11 19:00N 37°47' W 122°38'0 0.8
2018-Aug-11 18:30N 37°47' W 122°38'5 9.0
2018-Aug-11 17:59N 37°44' W 122°42'1 2.6
2018-Aug-11 17:26N 37°45' W 122°41'1 2.0
2018-Aug-11 17:00N 37°45' W 122°40'2 2.5
2018-Aug-11 16:13N 37°47' W 122°41'1 2.5
2018-Aug-11 15:59N 37°47' W 122°42'0 1.0
2018-Aug-11 15:30N 37°47' W 122°41'1 2.2
2018-Aug-11 15:00N 37°47' W 122°40'1 2.9
2018-Aug-11 14:30N 37°47' W 122°38'1 2.1
2018-Aug-11 14:00N 37°47' W 122°37'1 2.7
2018-Aug-11 13:30N 37°46' W 122°39'1 1.7
2018-Aug-11 12:59N 37°46' W 122°40'1 1.5
2018-Aug-11 12:30N 37°46' W 122°40'1 1.5
2018-Aug-11 12:00N 37°45' W 122°40'1 1.2
2018-Aug-11 11:29N 37°44' W 122°41'0 0.9
2018-Aug-11 11:00N 37°45' W 122°40'1 2.6
2018-Aug-11 10:29N 37°46' W 122°41'1 2.3
2018-Aug-11 10:00N 37°46' W 122°42'1 2.0
2018-Aug-11 09:29N 37°45' W 122°41'1 2.4
2018-Aug-11 09:00N 37°46' W 122°40'1 2.1
2018-Aug-11 08:30N 37°46' W 122°41'0 0.3
2018-Aug-11 07:59N 37°46' W 122°41'0 0.9
2018-Aug-11 07:30N 37°46' W 122°40'1 2.5
2018-Aug-11 07:00N 37°47' W 122°42'1 1.3
2018-Aug-11 06:27N 37°47' W 122°41'1 2.1
2018-Aug-11 06:00N 37°46' W 122°40'1 2.4
2018-Aug-11 05:30N 37°45' W 122°40'2 3.5
2018-Aug-11 05:00N 37°46' W 122°42'1 2.5
2018-Aug-11 04:29N 37°47' W 122°43'2 3.3
2018-Aug-11 04:00N 37°47' W 122°41'1 2.9
2018-Aug-11 03:30N 37°47' W 122°39'1 2.5
2018-Aug-11 03:00N 37°46' W 122°39'0 0.7
2018-Aug-11 02:30N 37°46' W 122°39'1 1.8
2018-Aug-11 02:00N 37°46' W 122°40'1 2.1
2018-Aug-11 01:30N 37°46' W 122°39'2 3.2
2018-Aug-11 01:01N 37°46' W 122°40'2 4.3
2018-Aug-11 00:30N 37°45' W 122°38'2 4.2
2018-Aug-11 00:00N 37°45' W 122°40'1 2.1
2018-Aug-10 23:30N 37°46' W 122°40'1 2.7
2018-Aug-10 23:00N 37°46' W 122°38'0 0.5
2018-Aug-10 22:30N 37°46' W 122°38'2 3.4
2018-Aug-10 22:00N 37°46' W 122°40'3 5.1
2018-Aug-10 21:30N 37°47' W 122°37'3 5.1
2018-Aug-10 21:01N 37°47' W 122°34'3 5.4
2018-Aug-10 20:30N 37°48' W 122°31'611.1
2018-Aug-10 20:00N 37°48' W 122°24'0 0.3
2018-Aug-10 19:30N 37°48' W 122°24'0 0.0
2018-Aug-10 19:00N 37°48' W 122°24'0 0.0
2018-Aug-10 18:30N 37°48' W 122°24'0 0.0
2018-Aug-10 18:00N 37°48' W 122°24'0 0.0
2018-Aug-10 17:30N 37°48' W 122°24'0 0.0
2018-Aug-10 17:00N 37°48' W 122°24'0 0.0
2018-Aug-09 23:22N 37°48' W 122°24'0 0.0
2018-Aug-09 23:00N 37°48' W 122°24'  

Dump ship's entire track history